sensor_id;sensor_type;location;lat;lon;timestamp;pressure;altitude;pressure_sealevel;temperature;humidity
74975;BME280;68459;50.836;19.138;2023-03-31T00:03:26;97720.06;;;9.03;78.40
74975;BME280;68459;50.836;19.138;2023-03-31T00:06:31;97727.53;;;9.01;78.44
74975;BME280;68459;50.836;19.138;2023-03-31T00:09:41;97730.00;;;9.02;78.27
74975;BME280;68459;50.836;19.138;2023-03-31T00:12:47;97737.84;;;9.04;78.42
74975;BME280;68459;50.836;19.138;2023-03-31T00:15:55;97728.22;;;9.08;78.83
74975;BME280;68459;50.836;19.138;2023-03-31T00:19:00;97737.69;;;9.10;78.52
74975;BME280;68459;50.836;19.138;2023-03-31T00:22:04;97730.22;;;9.12;78.25
74975;BME280;68459;50.836;19.138;2023-03-31T00:25:09;97724.47;;;9.09;78.41
74975;BME280;68459;50.836;19.138;2023-03-31T00:28:13;97724.47;;;9.09;78.43
74975;BME280;68459;50.836;19.138;2023-03-31T00:31:17;97727.16;;;9.09;77.86
74975;BME280;68459;50.836;19.138;2023-03-31T00:34:21;97734.09;;;9.05;78.39
74975;BME280;68459;50.836;19.138;2023-03-31T00:37:25;97726.72;;;9.00;78.45
74975;BME280;68459;50.836;19.138;2023-03-31T00:40:30;97722.28;;;8.94;78.23
74975;BME280;68459;50.836;19.138;2023-03-31T00:43:36;97727.78;;;8.87;78.24
74975;BME280;68459;50.836;19.138;2023-03-31T00:46:44;97728.72;;;8.81;77.95
74975;BME280;68459;50.836;19.138;2023-03-31T00:49:55;97735.63;;;8.77;78.23
74975;BME280;68459;50.836;19.138;2023-03-31T00:53:02;97723.84;;;8.78;78.50
74975;BME280;68459;50.836;19.138;2023-03-31T00:56:13;97730.50;;;8.76;78.59
74975;BME280;68459;50.836;19.138;2023-03-31T00:59:22;97727.56;;;8.77;77.72
74975;BME280;68459;50.836;19.138;2023-03-31T01:02:30;97727.09;;;8.80;78.06
74975;BME280;68459;50.836;19.138;2023-03-31T01:05:37;97730.34;;;8.82;78.43
74975;BME280;68459;50.836;19.138;2023-03-31T01:08:46;97735.50;;;8.84;78.40
74975;BME280;68459;50.836;19.138;2023-03-31T01:11:53;97730.72;;;8.86;78.24
74975;BME280;68459;50.836;19.138;2023-03-31T01:14:57;97728.03;;;8.86;77.78
74975;BME280;68459;50.836;19.138;2023-03-31T01:18:04;97735.28;;;8.85;78.07
74975;BME280;68459;50.836;19.138;2023-03-31T01:25:27;97715.53;;;8.68;78.04
74975;BME280;68459;50.836;19.138;2023-03-31T01:28:53;97715.53;;;8.56;78.37
74975;BME280;68459;50.836;19.138;2023-03-31T01:32:34;97714.25;;;8.47;77.89
74975;BME280;68459;50.836;19.138;2023-03-31T01:43:32;97708.00;;;8.12;78.83
74975;BME280;68459;50.836;19.138;2023-03-31T01:46:51;97715.91;;;8.07;79.75
74975;BME280;68459;50.836;19.138;2023-03-31T01:50:03;97710.06;;;7.98;78.36
74975;BME280;68459;50.836;19.138;2023-03-31T01:53:16;97713.22;;;7.95;78.96
74975;BME280;68459;50.836;19.138;2023-03-31T01:56:30;97721.13;;;7.90;78.68
74975;BME280;68459;50.836;19.138;2023-03-31T01:59:45;97712.16;;;7.84;78.89
74975;BME280;68459;50.836;19.138;2023-03-31T02:02:59;97718.78;;;7.82;77.98
74975;BME280;68459;50.836;19.138;2023-03-31T02:06:12;97720.06;;;7.79;78.94
74975;BME280;68459;50.836;19.138;2023-03-31T02:09:25;97732.88;;;7.77;78.75
74975;BME280;68459;50.836;19.138;2023-03-31T02:12:37;97720.94;;;7.73;78.72
74975;BME280;68459;50.836;19.138;2023-03-31T02:15:49;97727.16;;;7.74;78.99
74975;BME280;68459;50.836;19.138;2023-03-31T02:19:01;97720.50;;;7.76;79.01
74975;BME280;68459;50.836;19.138;2023-03-31T02:22:08;97726.47;;;7.78;78.58
74975;BME280;68459;50.836;19.138;2023-03-31T02:25:18;97718.56;;;7.83;78.89
74975;BME280;68459;50.836;19.138;2023-03-31T02:28:29;97719.84;;;7.93;78.51
74975;BME280;68459;50.836;19.138;2023-03-31T02:31:40;97717.31;;;7.98;79.22
74975;BME280;68459;50.836;19.138;2023-03-31T02:34:50;97720.09;;;8.03;78.81
74975;BME280;68459;50.836;19.138;2023-03-31T02:37:54;97716.81;;;8.01;78.71
74975;BME280;68459;50.836;19.138;2023-03-31T02:41:00;97721.75;;;8.04;78.43
74975;BME280;68459;50.836;19.138;2023-03-31T02:44:05;97713.91;;;8.02;78.49
74975;BME280;68459;50.836;19.138;2023-03-31T02:47:11;97721.63;;;7.99;78.61
74975;BME280;68459;50.836;19.138;2023-03-31T02:50:23;97710.31;;;7.97;78.19
74975;BME280;68459;50.836;19.138;2023-03-31T02:53:46;97704.13;;;7.96;78.99
74975;BME280;68459;50.836;19.138;2023-03-31T02:57:18;97705.97;;;7.96;78.67
74975;BME280;68459;50.836;19.138;2023-03-31T03:00:45;97702.84;;;7.99;78.04
74975;BME280;68459;50.836;19.138;2023-03-31T03:04:10;97714.50;;;7.93;78.60
74975;BME280;68459;50.836;19.138;2023-03-31T03:07:35;97716.00;;;7.88;78.36
74975;BME280;68459;50.836;19.138;2023-03-31T03:10:58;97714.47;;;7.81;78.16
74975;BME280;68459;50.836;19.138;2023-03-31T03:14:16;97716.78;;;7.77;78.39
74975;BME280;68459;50.836;19.138;2023-03-31T03:17:34;97713.25;;;7.65;79.18
74975;BME280;68459;50.836;19.138;2023-03-31T03:20:41;97714.50;;;7.63;78.68
74975;BME280;68459;50.836;19.138;2023-03-31T03:23:49;97716.59;;;7.61;78.24
74975;BME280;68459;50.836;19.138;2023-03-31T03:26:54;97716.38;;;7.62;79.02
74975;BME280;68459;50.836;19.138;2023-03-31T03:29:58;97708.47;;;7.67;78.88
74975;BME280;68459;50.836;19.138;2023-03-31T03:33:05;97704.28;;;7.71;78.52
74975;BME280;68459;50.836;19.138;2023-03-31T03:36:09;97716.63;;;7.72;78.49
74975;BME280;68459;50.836;19.138;2023-03-31T03:39:13;97713.50;;;7.75;78.58
74975;BME280;68459;50.836;19.138;2023-03-31T03:42:17;97707.09;;;7.76;78.53
74975;BME280;68459;50.836;19.138;2023-03-31T03:45:20;97690.28;;;7.69;78.27
74975;BME280;68459;50.836;19.138;2023-03-31T03:48:25;97691.16;;;7.63;77.99
74975;BME280;68459;50.836;19.138;2023-03-31T03:51:29;97684.63;;;7.59;78.40
74975;BME280;68459;50.836;19.138;2023-03-31T03:54:33;97683.00;;;7.58;78.97
74975;BME280;68459;50.836;19.138;2023-03-31T03:57:37;97681.22;;;7.52;78.58
74975;BME280;68459;50.836;19.138;2023-03-31T04:00:41;97675.59;;;7.42;78.27
74975;BME280;68459;50.836;19.138;2023-03-31T04:03:48;97684.75;;;7.34;78.06
74975;BME280;68459;50.836;19.138;2023-03-31T04:06:52;97678.00;;;7.32;78.64
74975;BME280;68459;50.836;19.138;2023-03-31T04:09:56;97684.88;;;7.28;79.11
74975;BME280;68459;50.836;19.138;2023-03-31T04:12:59;97673.75;;;7.24;78.73
74975;BME280;68459;50.836;19.138;2023-03-31T04:16:04;97686.13;;;7.25;78.15
74975;BME280;68459;50.836;19.138;2023-03-31T04:19:10;97686.94;;;7.26;78.69
74975;BME280;68459;50.836;19.138;2023-03-31T04:22:15;97684.25;;;7.26;78.53
74975;BME280;68459;50.836;19.138;2023-03-31T04:25:21;97679.50;;;7.28;78.82
74975;BME280;68459;50.836;19.138;2023-03-31T04:28:25;97674.13;;;7.28;78.81
74975;BME280;68459;50.836;19.138;2023-03-31T04:31:35;97663.31;;;7.34;78.56
74975;BME280;68459;50.836;19.138;2023-03-31T04:34:45;97662.84;;;7.37;78.32
74975;BME280;68459;50.836;19.138;2023-03-31T04:37:52;97660.66;;;7.46;78.35
74975;BME280;68459;50.836;19.138;2023-03-31T04:41:00;97659.16;;;7.50;78.46
74975;BME280;68459;50.836;19.138;2023-03-31T04:44:04;97663.03;;;7.54;77.66
74975;BME280;68459;50.836;19.138;2023-03-31T04:47:08;97668.53;;;7.59;77.57
74975;BME280;68459;50.836;19.138;2023-03-31T04:50:13;97666.44;;;7.61;77.64
74975;BME280;68459;50.836;19.138;2023-03-31T04:53:18;97665.31;;;7.69;77.66
74975;BME280;68459;50.836;19.138;2023-03-31T04:56:22;97655.38;;;7.69;78.31
74975;BME280;68459;50.836;19.138;2023-03-31T04:59:26;97648.75;;;7.72;76.80
74975;BME280;68459;50.836;19.138;2023-03-31T05:02:30;97649.91;;;7.76;77.79
74975;BME280;68459;50.836;19.138;2023-03-31T05:05:35;97640.34;;;7.80;77.09
74975;BME280;68459;50.836;19.138;2023-03-31T05:08:39;97635.94;;;7.85;77.25
74975;BME280;68459;50.836;19.138;2023-03-31T05:11:43;97634.63;;;7.88;76.80
74975;BME280;68459;50.836;19.138;2023-03-31T05:14:47;97626.47;;;7.95;77.06
74975;BME280;68459;50.836;19.138;2023-03-31T05:17:51;97624.38;;;7.97;76.86
74975;BME280;68459;50.836;19.138;2023-03-31T05:21:07;97621.81;;;8.02;77.08
74975;BME280;68459;50.836;19.138;2023-03-31T05:24:15;97633.72;;;8.06;76.66
74975;BME280;68459;50.836;19.138;2023-03-31T05:27:19;97627.44;;;8.12;76.68
74975;BME280;68459;50.836;19.138;2023-03-31T05:30:23;97626.47;;;8.18;76.91
74975;BME280;68459;50.836;19.138;2023-03-31T05:33:28;97618.06;;;8.26;76.50
74975;BME280;68459;50.836;19.138;2023-03-31T05:36:33;97615.06;;;8.34;76.15
74975;BME280;68459;50.836;19.138;2023-03-31T05:39:38;97599.31;;;8.38;75.61
74975;BME280;68459;50.836;19.138;2023-03-31T05:42:42;97609.56;;;8.41;75.97
74975;BME280;68459;50.836;19.138;2023-03-31T05:45:45;97602.09;;;8.43;75.99
74975;BME280;68459;50.836;19.138;2023-03-31T05:48:49;97611.69;;;8.50;76.11
74975;BME280;68459;50.836;19.138;2023-03-31T05:51:54;97613.41;;;8.56;75.30
74975;BME280;68459;50.836;19.138;2023-03-31T05:54:58;97601.13;;;8.61;74.86
74975;BME280;68459;50.836;19.138;2023-03-31T05:58:02;97597.84;;;8.70;75.41
74975;BME280;68459;50.836;19.138;2023-03-31T06:01:09;97608.78;;;8.80;75.07
74975;BME280;68459;50.836;19.138;2023-03-31T06:04:16;97604.88;;;9.00;74.79
74975;BME280;68459;50.836;19.138;2023-03-31T06:07:24;97599.88;;;9.20;74.53
74975;BME280;68459;50.836;19.138;2023-03-31T06:10:29;97609.63;;;9.38;73.95
74975;BME280;68459;50.836;19.138;2023-03-31T06:13:32;97617.97;;;9.53;73.28
74975;BME280;68459;50.836;19.138;2023-03-31T06:16:36;97609.72;;;9.59;73.36
74975;BME280;68459;50.836;19.138;2023-03-31T06:19:41;97611.72;;;9.64;72.43
74975;BME280;68459;50.836;19.138;2023-03-31T06:22:46;97613.44;;;9.70;72.65
74975;BME280;68459;50.836;19.138;2023-03-31T06:25:50;97610.81;;;9.75;72.51
74975;BME280;68459;50.836;19.138;2023-03-31T06:28:54;97601.69;;;9.76;71.73
74975;BME280;68459;50.836;19.138;2023-03-31T06:31:58;97597.44;;;9.80;72.23
74975;BME280;68459;50.836;19.138;2023-03-31T06:35:02;97596.97;;;9.83;71.64
74975;BME280;68459;50.836;19.138;2023-03-31T06:38:08;97599.72;;;9.88;71.29
74975;BME280;68459;50.836;19.138;2023-03-31T06:41:12;97602.75;;;9.92;71.24
74975;BME280;68459;50.836;19.138;2023-03-31T06:44:17;97602.03;;;9.96;70.78
74975;BME280;68459;50.836;19.138;2023-03-31T06:47:24;97595.63;;;10.02;71.24
74975;BME280;68459;50.836;19.138;2023-03-31T06:50:28;97603.88;;;10.13;70.84
74975;BME280;68459;50.836;19.138;2023-03-31T06:53:33;97608.63;;;10.06;70.66
74975;BME280;68459;50.836;19.138;2023-03-31T06:56:37;97600.63;;;9.94;70.31
74975;BME280;68459;50.836;19.138;2023-03-31T06:59:41;97598.09;;;9.87;71.03
74975;BME280;68459;50.836;19.138;2023-03-31T07:02:45;97595.63;;;9.86;71.01
74975;BME280;68459;50.836;19.138;2023-03-31T07:05:50;97607.41;;;9.96;70.79
74975;BME280;68459;50.836;19.138;2023-03-31T07:08:57;97602.94;;;10.19;71.02
74975;BME280;68459;50.836;19.138;2023-03-31T07:12:00;97610.31;;;10.45;70.16
74975;BME280;68459;50.836;19.138;2023-03-31T07:15:07;97592.28;;;10.67;69.51
74975;BME280;68459;50.836;19.138;2023-03-31T07:18:11;97599.75;;;10.82;69.21
74975;BME280;68459;50.836;19.138;2023-03-31T07:21:17;97602.13;;;11.00;69.14
74975;BME280;68459;50.836;19.138;2023-03-31T07:24:22;97588.75;;;11.11;68.11
74975;BME280;68459;50.836;19.138;2023-03-31T07:27:26;97576.97;;;11.22;68.58
74975;BME280;68459;50.836;19.138;2023-03-31T07:30:29;97575.56;;;11.41;68.79
74975;BME280;68459;50.836;19.138;2023-03-31T07:33:34;97594.09;;;11.59;67.95
74975;BME280;68459;50.836;19.138;2023-03-31T07:36:38;97576.94;;;11.70;68.38
74975;BME280;68459;50.836;19.138;2023-03-31T07:39:43;97577.34;;;11.84;67.35
74975;BME280;68459;50.836;19.138;2023-03-31T07:42:47;97571.78;;;12.01;67.04
74975;BME280;68459;50.836;19.138;2023-03-31T07:45:53;97568.34;;;12.10;66.18
74975;BME280;68459;50.836;19.138;2023-03-31T07:48:57;97557.28;;;12.17;66.40
74975;BME280;68459;50.836;19.138;2023-03-31T07:52:03;97556.53;;;12.27;65.76
74975;BME280;68459;50.836;19.138;2023-03-31T07:55:09;97547.94;;;12.35;66.20
74975;BME280;68459;50.836;19.138;2023-03-31T07:58:13;97556.66;;;12.47;65.12
74975;BME280;68459;50.836;19.138;2023-03-31T08:01:18;97562.06;;;12.52;65.44
74975;BME280;68459;50.836;19.138;2023-03-31T08:04:27;97552.63;;;12.55;64.87
74975;BME280;68459;50.836;19.138;2023-03-31T08:07:32;97546.41;;;12.54;65.16
74975;BME280;68459;50.836;19.138;2023-03-31T08:10:38;97534.50;;;12.50;64.92
74975;BME280;68459;50.836;19.138;2023-03-31T08:13:41;97562.91;;;12.53;64.95
74975;BME280;68459;50.836;19.138;2023-03-31T08:16:45;97534.44;;;12.40;64.98
74975;BME280;68459;50.836;19.138;2023-03-31T08:19:49;97534.13;;;12.31;65.45
74975;BME280;68459;50.836;19.138;2023-03-31T08:22:53;97523.56;;;12.30;65.14
74975;BME280;68459;50.836;19.138;2023-03-31T08:26:08;97518.47;;;12.33;65.00
74975;BME280;68459;50.836;19.138;2023-03-31T08:29:15;97519.34;;;12.49;65.13
74975;BME280;68459;50.836;19.138;2023-03-31T08:32:21;97526.94;;;12.57;64.01
74975;BME280;68459;50.836;19.138;2023-03-31T08:35:26;97513.47;;;12.62;64.69
74975;BME280;68459;50.836;19.138;2023-03-31T08:38:29;97506.16;;;12.68;64.12
74975;BME280;68459;50.836;19.138;2023-03-31T08:41:43;97505.91;;;12.79;64.20
74975;BME280;68459;50.836;19.138;2023-03-31T08:44:58;97506.50;;;12.92;62.98
74975;BME280;68459;50.836;19.138;2023-03-31T08:48:15;97493.53;;;12.94;62.27
74975;BME280;68459;50.836;19.138;2023-03-31T08:51:28;97497.31;;;12.98;62.77
74975;BME280;68459;50.836;19.138;2023-03-31T08:54:37;97484.34;;;13.10;62.81
74975;BME280;68459;50.836;19.138;2023-03-31T08:57:53;97493.63;;;13.29;61.55
74975;BME280;68459;50.836;19.138;2023-03-31T09:01:07;97478.72;;;13.37;60.89
74975;BME280;68459;50.836;19.138;2023-03-31T09:04:36;97477.13;;;13.56;61.69
74975;BME280;68459;50.836;19.138;2023-03-31T09:07:58;97470.31;;;13.74;60.96
74975;BME280;68459;50.836;19.138;2023-03-31T09:11:13;97462.75;;;13.71;61.12
74975;BME280;68459;50.836;19.138;2023-03-31T09:14:33;97443.22;;;13.64;60.69
74975;BME280;68459;50.836;19.138;2023-03-31T09:17:43;97456.75;;;13.59;60.01
74975;BME280;68459;50.836;19.138;2023-03-31T09:20:52;97435.66;;;13.40;60.72
74975;BME280;68459;50.836;19.138;2023-03-31T09:24:09;97427.00;;;13.38;61.29
74975;BME280;68459;50.836;19.138;2023-03-31T09:27:18;97434.03;;;13.49;60.31
74975;BME280;68459;50.836;19.138;2023-03-31T09:30:26;97416.69;;;13.50;61.03
74975;BME280;68459;50.836;19.138;2023-03-31T09:33:33;97426.44;;;13.67;60.98
74975;BME280;68459;50.836;19.138;2023-03-31T09:36:41;97414.97;;;13.95;60.61
74975;BME280;68459;50.836;19.138;2023-03-31T09:39:45;97429.59;;;14.04;59.01
74975;BME280;68459;50.836;19.138;2023-03-31T09:42:53;97419.81;;;14.08;58.99
74975;BME280;68459;50.836;19.138;2023-03-31T09:46:02;97420.84;;;14.22;58.17
74975;BME280;68459;50.836;19.138;2023-03-31T09:49:18;97407.22;;;14.43;57.12
74975;BME280;68459;50.836;19.138;2023-03-31T09:52:27;97407.41;;;14.61;56.86
74975;BME280;68459;50.836;19.138;2023-03-31T09:55:40;97396.16;;;14.78;55.86
74975;BME280;68459;50.836;19.138;2023-03-31T09:58:48;97391.66;;;15.03;56.81
74975;BME280;68459;50.836;19.138;2023-03-31T10:01:56;97394.63;;;15.35;54.35
74975;BME280;68459;50.836;19.138;2023-03-31T10:05:04;97383.09;;;15.48;55.36
74975;BME280;68459;50.836;19.138;2023-03-31T10:08:20;97363.97;;;15.63;54.15
74975;BME280;68459;50.836;19.138;2023-03-31T10:11:28;97373.03;;;15.83;54.62
74975;BME280;68459;50.836;19.138;2023-03-31T10:14:38;97376.72;;;15.92;51.75
74975;BME280;68459;50.836;19.138;2023-03-31T10:17:44;97378.94;;;15.85;53.73
74975;BME280;68459;50.836;19.138;2023-03-31T10:20:57;97358.78;;;15.91;52.62
74975;BME280;68459;50.836;19.138;2023-03-31T10:24:07;97373.63;;;15.75;52.15
74975;BME280;68459;50.836;19.138;2023-03-31T10:27:19;97369.63;;;15.38;52.99
74975;BME280;68459;50.836;19.138;2023-03-31T10:30:30;97361.78;;;15.31;51.84
74975;BME280;68459;50.836;19.138;2023-03-31T10:33:44;97351.59;;;15.47;54.10
74975;BME280;68459;50.836;19.138;2023-03-31T10:36:50;97355.91;;;15.82;52.89
74975;BME280;68459;50.836;19.138;2023-03-31T10:39:56;97360.03;;;15.98;52.39
74975;BME280;68459;50.836;19.138;2023-03-31T10:43:08;97353.22;;;16.01;51.67
74975;BME280;68459;50.836;19.138;2023-03-31T10:46:18;97362.75;;;15.98;51.34
74975;BME280;68459;50.836;19.138;2023-03-31T10:49:26;97348.47;;;15.88;51.62
74975;BME280;68459;50.836;19.138;2023-03-31T10:52:43;97342.97;;;15.93;50.28
74975;BME280;68459;50.836;19.138;2023-03-31T10:56:08;97343.81;;;16.12;50.58
74975;BME280;68459;50.836;19.138;2023-03-31T10:59:42;97346.47;;;16.17;49.44
74975;BME280;68459;50.836;19.138;2023-03-31T11:03:18;97326.72;;;16.30;51.04
74975;BME280;68459;50.836;19.138;2023-03-31T11:06:48;97319.16;;;16.46;51.04
74975;BME280;68459;50.836;19.138;2023-03-31T11:10:15;97339.34;;;16.64;49.29
74975;BME280;68459;50.836;19.138;2023-03-31T11:13:36;97329.47;;;16.49;49.53
74975;BME280;68459;50.836;19.138;2023-03-31T11:16:54;97318.94;;;16.24;49.85
74975;BME280;68459;50.836;19.138;2023-03-31T11:20:15;97306.97;;;16.01;50.27
74975;BME280;68459;50.836;19.138;2023-03-31T11:23:38;97312.72;;;15.76;50.61
74975;BME280;68459;50.836;19.138;2023-03-31T11:26:49;97320.84;;;15.52;51.04
74975;BME280;68459;50.836;19.138;2023-03-31T11:30:01;97295.00;;;15.30;51.69
74975;BME280;68459;50.836;19.138;2023-03-31T11:33:29;97288.63;;;15.16;51.99
74975;BME280;68459;50.836;19.138;2023-03-31T11:37:04;97285.22;;;15.01;51.97
74975;BME280;68459;50.836;19.138;2023-03-31T11:40:36;97273.41;;;14.86;52.27
74975;BME280;68459;50.836;19.138;2023-03-31T11:43:53;97290.81;;;14.80;52.95
74975;BME280;68459;50.836;19.138;2023-03-31T11:47:06;97271.13;;;14.98;52.38
74975;BME280;68459;50.836;19.138;2023-03-31T11:50:18;97268.41;;;15.27;51.93
74975;BME280;68459;50.836;19.138;2023-03-31T11:53:28;97264.25;;;15.59;51.51
74975;BME280;68459;50.836;19.138;2023-03-31T11:56:38;97250.16;;;15.81;52.29
74975;BME280;68459;50.836;19.138;2023-03-31T11:59:46;97239.41;;;16.27;50.06
74975;BME280;68459;50.836;19.138;2023-03-31T12:03:01;97267.81;;;16.21;49.55
74975;BME280;68459;50.836;19.138;2023-03-31T12:06:13;97244.16;;;16.21;50.50
74975;BME280;68459;50.836;19.138;2023-03-31T12:09:25;97252.50;;;16.44;49.06
74975;BME280;68459;50.836;19.138;2023-03-31T12:12:38;97225.94;;;16.54;49.64
74975;BME280;68459;50.836;19.138;2023-03-31T12:15:51;97217.31;;;16.98;48.82
74975;BME280;68459;50.836;19.138;2023-03-31T12:19:06;97224.09;;;17.15;46.92
74975;BME280;68459;50.836;19.138;2023-03-31T12:22:21;97217.84;;;17.14;47.81
74975;BME280;68459;50.836;19.138;2023-03-31T12:25:41;97229.91;;;16.94;46.96
74975;BME280;68459;50.836;19.138;2023-03-31T12:28:56;97222.28;;;16.64;48.23
74975;BME280;68459;50.836;19.138;2023-03-31T12:32:09;97202.13;;;16.46;49.25
74975;BME280;68459;50.836;19.138;2023-03-31T12:35:20;97187.72;;;16.27;49.13
74975;BME280;68459;50.836;19.138;2023-03-31T12:38:45;97192.03;;;15.95;50.18
74975;BME280;68459;50.836;19.138;2023-03-31T12:42:10;97187.88;;;15.60;50.97
74975;BME280;68459;50.836;19.138;2023-03-31T12:45:41;97173.88;;;15.48;51.71
74975;BME280;68459;50.836;19.138;2023-03-31T12:49:11;97164.19;;;15.42;52.09
74975;BME280;68459;50.836;19.138;2023-03-31T12:52:27;97163.09;;;15.43;52.32
74975;BME280;68459;50.836;19.138;2023-03-31T12:55:42;97162.69;;;15.55;51.81
74975;BME280;68459;50.836;19.138;2023-03-31T12:58:49;97155.63;;;15.73;52.28
74975;BME280;68459;50.836;19.138;2023-03-31T13:02:20;97154.88;;;15.86;51.14
74975;BME280;68459;50.836;19.138;2023-03-31T13:05:45;97156.75;;;16.42;50.68
74975;BME280;68459;50.836;19.138;2023-03-31T13:08:55;97162.13;;;16.93;48.59
74975;BME280;68459;50.836;19.138;2023-03-31T13:12:05;97172.94;;;17.12;48.43
74975;BME280;68459;50.836;19.138;2023-03-31T13:15:13;97152.03;;;16.93;48.64
74975;BME280;68459;50.836;19.138;2023-03-31T13:18:20;97158.28;;;16.48;48.49
74975;BME280;68459;50.836;19.138;2023-03-31T13:21:25;97143.22;;;16.04;49.76
74975;BME280;68459;50.836;19.138;2023-03-31T13:24:30;97127.06;;;15.75;50.49
74975;BME280;68459;50.836;19.138;2023-03-31T13:27:36;97137.84;;;15.61;50.45
74975;BME280;68459;50.836;19.138;2023-03-31T13:30:46;97135.25;;;15.51;50.64
74975;BME280;68459;50.836;19.138;2023-03-31T13:33:58;97112.03;;;15.40;50.97
74975;BME280;68459;50.836;19.138;2023-03-31T13:37:12;97108.28;;;15.36;50.84
74975;BME280;68459;50.836;19.138;2023-03-31T13:40:39;97101.94;;;15.22;51.03
74975;BME280;68459;50.836;19.138;2023-03-31T13:44:18;97102.66;;;15.09;51.15
74975;BME280;68459;50.836;19.138;2023-03-31T13:48:02;97103.47;;;14.85;52.49
74975;BME280;68459;50.836;19.138;2023-03-31T13:51:36;97109.50;;;14.53;53.74
74975;BME280;68459;50.836;19.138;2023-03-31T13:55:16;97158.34;;;14.24;55.09
74975;BME280;68459;50.836;19.138;2023-03-31T13:58:55;97156.59;;;12.91;59.75
74975;BME280;68459;50.836;19.138;2023-03-31T14:02:38;97132.63;;;11.78;61.03
74975;BME280;68459;50.836;19.138;2023-03-31T14:06:01;97130.38;;;11.29;61.87
74975;BME280;68459;50.836;19.138;2023-03-31T14:09:15;97118.97;;;11.12;64.28
74975;BME280;68459;50.836;19.138;2023-03-31T14:12:31;97114.34;;;11.02;63.33
74975;BME280;68459;50.836;19.138;2023-03-31T14:15:38;97100.06;;;11.02;63.40
74975;BME280;68459;50.836;19.138;2023-03-31T14:18:49;97087.38;;;11.07;64.21
74975;BME280;68459;50.836;19.138;2023-03-31T14:22:08;97083.63;;;11.24;63.72
74975;BME280;68459;50.836;19.138;2023-03-31T14:25:32;97070.47;;;11.53;62.99
74975;BME280;68459;50.836;19.138;2023-03-31T14:28:58;97071.59;;;11.82;63.27
74975;BME280;68459;50.836;19.138;2023-03-31T14:32:20;97054.03;;;12.10;62.99
74975;BME280;68459;50.836;19.138;2023-03-31T14:35:36;97055.81;;;12.45;62.75
74975;BME280;68459;50.836;19.138;2023-03-31T14:38:45;97038.25;;;13.17;61.84
74975;BME280;68459;50.836;19.138;2023-03-31T14:41:52;97035.63;;;14.38;61.31
74975;BME280;68459;50.836;19.138;2023-03-31T14:45:02;97033.69;;;15.66;59.33
74975;BME280;68459;50.836;19.138;2023-03-31T14:48:13;97037.03;;;16.96;57.89
74975;BME280;68459;50.836;19.138;2023-03-31T14:51:18;97026.84;;;17.74;55.53
74975;BME280;68459;50.836;19.138;2023-03-31T14:54:33;97024.41;;;17.50;54.96
74975;BME280;68459;50.836;19.138;2023-03-31T14:57:41;97022.91;;;16.94;55.64
74975;BME280;68459;50.836;19.138;2023-03-31T15:00:48;97022.69;;;16.22;56.78
74975;BME280;68459;50.836;19.138;2023-03-31T15:03:53;97013.94;;;15.42;58.58
74975;BME280;68459;50.836;19.138;2023-03-31T15:06:59;97007.00;;;14.74;59.95
74975;BME280;68459;50.836;19.138;2023-03-31T15:10:06;97008.88;;;14.26;60.25
74975;BME280;68459;50.836;19.138;2023-03-31T15:13:25;97009.25;;;13.85;61.15
74975;BME280;68459;50.836;19.138;2023-03-31T15:16:37;97003.63;;;13.48;61.67
74975;BME280;68459;50.836;19.138;2023-03-31T15:19:44;96989.72;;;13.20;63.14
74975;BME280;68459;50.836;19.138;2023-03-31T15:22:48;96995.00;;;13.02;61.99
74975;BME280;68459;50.836;19.138;2023-03-31T15:25:55;97012.66;;;12.89;62.99
74975;BME280;68459;50.836;19.138;2023-03-31T15:29:03;96994.59;;;12.74;63.35
74975;BME280;68459;50.836;19.138;2023-03-31T15:32:13;96989.03;;;12.51;63.09
74975;BME280;68459;50.836;19.138;2023-03-31T15:35:22;96991.53;;;12.27;64.02
74975;BME280;68459;50.836;19.138;2023-03-31T15:38:29;96979.72;;;12.07;63.94
74975;BME280;68459;50.836;19.138;2023-03-31T15:41:33;96973.78;;;11.95;64.15
74975;BME280;68459;50.836;19.138;2023-03-31T15:44:43;96967.31;;;11.86;64.60
74975;BME280;68459;50.836;19.138;2023-03-31T15:47:49;96957.06;;;11.78;64.35
74975;BME280;68459;50.836;19.138;2023-03-31T15:50:59;96954.88;;;11.75;64.39
74975;BME280;68459;50.836;19.138;2023-03-31T15:54:28;96954.88;;;11.75;65.70
74975;BME280;68459;50.836;19.138;2023-03-31T15:57:35;96935.44;;;11.73;65.17
74975;BME280;68459;50.836;19.138;2023-03-31T16:00:45;96945.19;;;11.79;65.55
74975;BME280;68459;50.836;19.138;2023-03-31T16:03:54;96941.09;;;11.87;64.92
74975;BME280;68459;50.836;19.138;2023-03-31T16:07:01;96947.31;;;11.97;64.93
74975;BME280;68459;50.836;19.138;2023-03-31T16:10:15;96934.31;;;11.99;66.24
74975;BME280;68459;50.836;19.138;2023-03-31T16:13:22;96927.06;;;11.90;65.88
74975;BME280;68459;50.836;19.138;2023-03-31T16:16:28;96938.16;;;11.78;65.52
74975;BME280;68459;50.836;19.138;2023-03-31T16:19:40;96940.84;;;11.68;66.41
74975;BME280;68459;50.836;19.138;2023-03-31T16:22:49;96928.44;;;11.57;65.86
74975;BME280;68459;50.836;19.138;2023-03-31T16:25:55;96929.25;;;11.52;66.38
74975;BME280;68459;50.836;19.138;2023-03-31T16:29:00;96915.50;;;11.49;66.29
74975;BME280;68459;50.836;19.138;2023-03-31T16:32:10;96916.84;;;11.46;67.73
74975;BME280;68459;50.836;19.138;2023-03-31T16:35:15;96914.44;;;11.45;66.35
74975;BME280;68459;50.836;19.138;2023-03-31T16:38:20;96911.72;;;11.39;66.51
74975;BME280;68459;50.836;19.138;2023-03-31T16:41:27;96918.19;;;11.33;66.75
74975;BME280;68459;50.836;19.138;2023-03-31T16:44:31;96913.88;;;11.32;67.73
74975;BME280;68459;50.836;19.138;2023-03-31T16:47:36;96912.81;;;11.23;67.91
74975;BME280;68459;50.836;19.138;2023-03-31T16:50:40;96923.63;;;11.18;67.94
74975;BME280;68459;50.836;19.138;2023-03-31T16:53:45;96914.44;;;11.14;67.75
74975;BME280;68459;50.836;19.138;2023-03-31T16:56:49;96910.13;;;11.13;68.86